Shenley AV, United Kingdom
Current Conditions -  °F | °C
As of 5:50 AM on Sunday 26 Oct 2014 (Local Time) from EGWU Reporting Station
Broken Clouds Broken Clouds  
Wind Chill: 54°   Ceiling: 24000
Heat Index: 54°   Visibility: 6mi
Dew Point: 45°   Wind: 8mph
Humidity: 72%   Direction: 230°SW
Pressure: 30.15"   Gusts: NA
Location:  51.69°N, 0.28°W
Report Text: EGWU 260450Z AUTO 23007KT 9999 // BKN240/// 12/07 Q1021
Loading
Personal Weather Stations






























Interactive Weather Map
Tropical Storm Tracking
New forecast layout! Learn more

10-Day Weather Forecast

Advertisements
Track Severe Weather on mobile